Latest Weather Observations for St Kilda Harbour RMYS

IDV60801

Issued at 4:05 pm EST Sunday 31 August 2014 (issued every 30 minutes, with the page automatically refreshed every 10 minutes)

About weather observations | Map of weather stations | Latest weather observations for VIC | Other Formats
Station Details ID: 086220 Name: ST KILDA HARBOUR - RMYS Lat: -37.86 Lon: 144.96 Height: 6.4 m
Data from the previous 72 hours. | See also: Recent months for locations in Victoria
Date/Time
EST
Temp
°C
App
Temp
°C
Dew
Point
Rel
Hum
%
Delta-T
°C
Wind Press
QNH
hPa
Press
MSL
hPa
Rain
since 9 am
mm
Dir
 
Spd
km/h
Gust
km/h
Spd
kts
Gust
kts
31/04:02pm - - - - - N 30 48 16 26 - - -
31/04:00pm - - - - - N 32 48 17 26 - - -
31/03:30pm - - - - - N 30 50 16 27 - - -
31/03:26pm - - - - - N 30 50 16 27 - - -
31/03:00pm - - - - - N 32 43 17 23 - - -
31/02:30pm - - - - - NNW 33 50 18 27 - - -
31/02:00pm - - - - - N 32 43 17 23 - - -
31/01:30pm - - - - - N 33 44 18 24 - - -
31/01:00pm - - - - - N 35 48 19 26 - - -
31/12:30pm - - - - - N 33 50 18 27 - - -
31/12:25pm - - - - - N 30 50 16 27 - - -
31/12:00pm - - - - - N 28 41 15 22 - - -
31/11:30am - - - - - N 28 39 15 21 - - -
31/11:18am - - - - - N 28 46 15 25 - - -
31/11:00am - - - - - N 26 39 14 21 - - -
31/10:30am - - - - - N 30 43 16 23 - - -
31/10:00am - - - - - N 26 37 14 20 - - -
31/09:30am - - - - - N 24 35 13 19 - - -
31/09:00am - - - - - NNE 22 35 12 19 - - -
31/08:30am - - - - - NNE 20 32 11 17 - - -
31/08:00am - - - - - NNE 20 30 11 16 - - -
31/07:30am - - - - - NNE 20 30 11 16 - - -
31/07:00am - - - - - N 20 26 11 14 - - -
31/06:30am - - - - - NNE 19 26 10 14 - - -
31/06:00am - - - - - NNE 19 26 10 14 - - -
31/05:30am - - - - - NNE 19 28 10 15 - - -
31/05:00am - - - - - NNE 17 22 9 12 - - -
31/04:30am - - - - - NNE 17 22 9 12 - - -
31/04:00am - - - - - NNE 15 22 8 12 - - -
31/03:30am - - - - - NNE 17 22 9 12 - - -
31/03:00am - - - - - NNE 15 20 8 11 - - -
31/02:30am - - - - - NNE 17 22 9 12 - - -
31/02:00am - - - - - NNE 15 20 8 11 - - -
31/01:30am - - - - - NNE 17 22 9 12 - - -
31/01:00am - - - - - NNE 15 20 8 11 - - -
31/12:30am - - - - - NNE 17 20 9 11 - - -
31/12:00am - - - - - NNE 15 20 8 11 - - -
 
Date/Time
EST
Temp
°C
App
Temp
°C
Dew
Point
Rel
Hum
%
Delta-T
°C
Wind Press
QNH
hPa
Press
MSL
hPa
Rain
since 9 am
mm
Dir
 
Spd
km/h
Gust
km/h
Spd
kts
Gust
kts
30/11:30pm - - - - - NNE 15 22 8 12 - - -
30/11:00pm - - - - - NNE 13 19 7 10 - - -
30/10:30pm - - - - - NNE 13 15 7 8 - - -
30/10:00pm - - - - - NNE 11 13 6 7 - - -
30/09:30pm - - - - - NNE 11 13 6 7 - - -
30/09:00pm - - - - - NNE 7 11 4 6 - - -
30/08:30pm - - - - - NNE 9 13 5 7 - - -
30/08:00pm - - - - - NNE 9 13 5 7 - - -
30/07:30pm - - - - - N 11 17 6 9 - - -
30/07:00pm - - - - - NNE 13 20 7 11 - - -
30/06:30pm - - - - - NNE 11 17 6 9 - - -
30/06:00pm - - - - - N 15 22 8 12 - - -
30/05:30pm - - - - - N 17 24 9 13 - - -
30/05:00pm - - - - - N 17 24 9 13 - - -
30/04:30pm - - - - - N 19 26 10 14 - - -
30/04:00pm - - - - - NNE 19 30 10 16 - - -
30/03:30pm - - - - - N 20 33 11 18 - - -
30/03:00pm - - - - - N 20 33 11 18 - - -
30/02:30pm - - - - - N 15 26 8 14 - - -
30/02:00pm - - - - - NW 15 28 8 15 - - -
30/01:30pm - - - - - S 6 9 3 5 - - -
30/01:00pm - - - - - S 19 20 10 11 - - -
30/12:30pm - - - - - S 15 22 8 12 - - -
30/12:00pm - - - - - S 17 20 9 11 - - -
30/11:30am - - - - - E 6 13 3 7 - - -
30/11:00am - - - - - N 9 17 5 9 - - -
30/10:30am - - - - - ENE 9 15 5 8 - - -
30/10:00am - - - - - NE 4 7 2 4 - - -
30/09:30am - - - - - ENE 6 7 3 4 - - -
30/09:00am - - - - - NE 6 15 3 8 - - -
30/08:30am - - - - - NE 7 11 4 6 - - -
30/08:00am - - - - - NE 7 11 4 6 - - -
30/07:30am - - - - - NNE 6 11 3 6 - - -
30/07:00am - - - - - N 4 7 2 4 - - -
30/06:30am - - - - - N 11 15 6 8 - - -
30/06:00am - - - - - NNE 11 20 6 11 - - -
30/05:30am - - - - - NE 9 13 5 7 - - -
30/05:00am - - - - - N 6 7 3 4 - - -
30/04:30am - - - - - N 4 7 2 4 - - -
30/04:00am - - - - - NNE 4 7 2 4 - - -
30/03:30am - - - - - NNE 4 7 2 4 - - -
30/03:00am - - - - - WNW 4 7 2 4 - - -
30/02:30am - - - - - W 7 9 4 5 - - -
30/02:00am - - - - - W 4 6 2 3 - - -
30/01:30am - - - - - WSW 4 6 2 3 - - -
30/01:00am - - - - - SSW 2 4 1 2 - - -
30/12:30am - - - - - SE 4 7 2 4 - - -
30/12:00am - - - - - SSE 7 11 4 6 - - -
 
Date/Time
EST
Temp
°C
App
Temp
°C
Dew
Point
Rel
Hum
%
Delta-T
°C
Wind Press
QNH
hPa
Press
MSL
hPa
Rain
since 9 am
mm
Dir
 
Spd
km/h
Gust
km/h
Spd
kts
Gust
kts
29/11:30pm - - - - - SSE 6 11 3 6 - - -
29/11:00pm - - - - - SE 9 13 5 7 - - -
29/10:30pm - - - - - SSE 13 15 7 8 - - -
29/10:00pm - - - - - S 15 17 8 9 - - -
29/09:30pm - - - - - S 17 19 9 10 - - -
29/09:00pm - - - - - S 15 17 8 9 - - -
29/08:30pm - - - - - SE 9 11 5 6 - - -
29/08:00pm - - - - - SSE 15 20 8 11 - - -
29/07:30pm - - - - - S 19 22 10 12 - - -
29/07:00pm - - - - - SSW 17 20 9 11 - - -
29/06:30pm - - - - - SSW 15 17 8 9 - - -
29/06:00pm - - - - - S 15 19 8 10 - - -
29/05:30pm - - - - - S 17 20 9 11 - - -
29/05:00pm - - - - - SSW 15 19 8 10 - - -
29/04:30pm - - - - - SW 15 17 8 9 - - -
29/04:00pm - - - - - SSW 15 17 8 9 - - -
29/03:30pm - - - - - SSW 15 19 8 10 - - -
29/03:00pm - - - - - SSW 17 19 9 10 - - -
29/02:30pm - - - - - SSW 15 17 8 9 - - -
29/02:00pm - - - - - SSW 17 19 9 10 - - -
29/01:30pm - - - - - SSW 9 11 5 6 - - -
29/01:00pm - - - - - S 7 9 4 5 - - -
29/12:30pm - - - - - SSW 11 13 6 7 - - -
29/12:00pm - - - - - SSW 7 9 4 5 - - -
29/11:30am - - - - - SSW 9 11 5 6 - - -
29/11:00am - - - - - SSW 13 15 7 8 - - -
29/10:30am - - - - - SSW 11 15 6 8 - - -
29/10:00am - - - - - WSW 11 13 6 7 - - -
29/09:30am - - - - - W 6 7 3 4 - - -
29/09:00am - - - - - NW 2 4 1 2 - - -
29/08:30am - - - - - N 6 7 3 4 - - -
29/08:00am - - - - - N 4 7 2 4 - - -
29/07:30am - - - - - N 2 6 1 3 - - -
29/07:00am - - - - - NNW 4 6 2 3 - - -
29/06:30am - - - - - WSW 7 13 4 7 - - -
29/06:00am - - - - - W 7 11 4 6 - - -
29/05:30am - - - - - NW 9 11 5 6 - - -
29/05:00am - - - - - WNW 9 13 5 7 - - -
29/04:30am - - - - - WNW 6 9 3 5 - - -
29/04:00am - - - - - SSW 4 6 2 3 - - -
29/03:30am - - - - - WNW 6 7 3 4 - - -
29/03:00am - - - - - WNW 4 7 2 4 - - -
29/02:30am - - - - - WSW 2 7 1 4 - - -
29/02:00am - - - - - W 6 9 3 5 - - -
29/01:30am - - - - - WNW 11 13 6 7 - - -
29/01:00am - - - - - WNW 9 11 5 6 - - -
29/12:30am - - - - - NNW 6 7 3 4 - - -
29/12:00am - - - - - N 6 7 3 4 - - -
 
Date/Time
EST
Temp
°C
App
Temp
°C
Dew
Point
Rel
Hum
%
Delta-T
°C
Wind Press
QNH
hPa
Press
MSL
hPa
Rain
since 9 am
mm
Dir
 
Spd
km/h
Gust
km/h
Spd
kts
Gust
kts
28/11:30pm - - - - - WNW 7 7 4 4 - - -
28/11:00pm - - - - - W 9 11 5 6 - - -
28/10:30pm - - - - - WSW 11 13 6 7 - - -
28/10:00pm - - - - - WSW 15 19 8 10 - - -
28/09:30pm - - - - - W 11 15 6 8 - - -
28/09:00pm - - - - - WNW 6 7 3 4 - - -
28/08:30pm - - - - - SW 4 6 2 3 - - -
28/08:00pm - - - - - S 6 7 3 4 - - -
28/07:30pm - - - - - SSW 9 13 5 7 - - -
28/07:00pm - - - - - ESE 6 7 3 4 - - -
28/06:30pm - - - - - SSE 11 13 6 7 - - -
28/06:00pm - - - - - SSE 11 15 6 8 - - -
28/05:30pm - - - - - S 17 20 9 11 - - -
28/05:00pm - - - - - S 20 22 11 12 - - -
28/04:30pm - - - - - S 22 24 12 13 - - -

Other Formats:

Comma delimited format used in spreadsheet applications
http://www.bom.gov.au/fwo/IDV60801/IDV60801.95864.axf

JavaScript Object Notation format (JSON) in row-major order
http://www.bom.gov.au/fwo/IDV60801/IDV60801.95864.json